sensor_id;sensor_type;location;lat;lon;timestamp;P1;durP1;ratioP1;P2;durP2;ratioP2
28529;SDS011;15737;49.760;6.632;2023-01-01T00:00:42;6.70;;;3.73;;
28529;SDS011;15737;49.760;6.632;2023-01-01T00:03:08;5.60;;;3.00;;
28529;SDS011;15737;49.760;6.632;2023-01-01T00:05:36;3.50;;;2.87;;
28529;SDS011;15737;49.760;6.632;2023-01-01T00:08:02;4.70;;;3.37;;
28529;SDS011;15737;49.760;6.632;2023-01-01T00:10:28;5.47;;;3.53;;
28529;SDS011;15737;49.760;6.632;2023-01-01T00:12:54;6.10;;;3.77;;
28529;SDS011;15737;49.760;6.632;2023-01-01T00:15:20;4.23;;;2.33;;
28529;SDS011;15737;49.760;6.632;2023-01-01T00:17:46;5.27;;;3.00;;
28529;SDS011;15737;49.760;6.632;2023-01-01T00:20:12;3.13;;;2.50;;
28529;SDS011;15737;49.760;6.632;2023-01-01T00:22:38;5.10;;;3.10;;
28529;SDS011;15737;49.760;6.632;2023-01-01T00:25:04;1.83;;;1.63;;
28529;SDS011;15737;49.760;6.632;2023-01-01T00:27:30;4.47;;;1.90;;
28529;SDS011;15737;49.760;6.632;2023-01-01T00:29:56;3.03;;;2.30;;
28529;SDS011;15737;49.760;6.632;2023-01-01T00:34:51;4.37;;;2.23;;
28529;SDS011;15737;49.760;6.632;2023-01-01T00:37:16;2.87;;;2.20;;
28529;SDS011;15737;49.760;6.632;2023-01-01T00:39:42;5.23;;;1.30;;
28529;SDS011;15737;49.760;6.632;2023-01-01T00:42:08;3.00;;;2.00;;
28529;SDS011;15737;49.760;6.632;2023-01-01T00:44:34;1.87;;;1.60;;
28529;SDS011;15737;49.760;6.632;2023-01-01T00:46:59;1.70;;;1.43;;
28529;SDS011;15737;49.760;6.632;2023-01-01T00:49:25;1.57;;;0.87;;
28529;SDS011;15737;49.760;6.632;2023-01-01T00:51:51;1.17;;;1.07;;
28529;SDS011;15737;49.760;6.632;2023-01-01T00:54:17;3.17;;;1.43;;
28529;SDS011;15737;49.760;6.632;2023-01-01T00:56:43;1.47;;;1.23;;
28529;SDS011;15737;49.760;6.632;2023-01-01T00:59:08;1.33;;;1.07;;
28529;SDS011;15737;49.760;6.632;2023-01-01T01:01:34;1.63;;;1.50;;
28529;SDS011;15737;49.760;6.632;2023-01-01T01:04:00;3.60;;;1.57;;
28529;SDS011;15737;49.760;6.632;2023-01-01T01:06:27;1.00;;;0.87;;
28529;SDS011;15737;49.760;6.632;2023-01-01T01:08:53;4.03;;;1.80;;
28529;SDS011;15737;49.760;6.632;2023-01-01T01:11:20;1.63;;;1.37;;
28529;SDS011;15737;49.760;6.632;2023-01-01T01:13:48;2.17;;;1.03;;
28529;SDS011;15737;49.760;6.632;2023-01-01T01:18:46;0.70;;;0.70;;
28529;SDS011;15737;49.760;6.632;2023-01-01T01:21:16;0.70;;;0.70;;
28529;SDS011;15737;49.760;6.632;2023-01-01T01:23:43;1.37;;;1.00;;
28529;SDS011;15737;49.760;6.632;2023-01-01T01:26:15;0.80;;;0.80;;
28529;SDS011;15737;49.760;6.632;2023-01-01T01:28:46;2.13;;;1.47;;
28529;SDS011;15737;49.760;6.632;2023-01-01T01:31:11;1.27;;;1.17;;
28529;SDS011;15737;49.760;6.632;2023-01-01T01:33:37;1.67;;;1.27;;
28529;SDS011;15737;49.760;6.632;2023-01-01T01:36:03;3.40;;;1.00;;
28529;SDS011;15737;49.760;6.632;2023-01-01T01:38:30;1.17;;;0.63;;
28529;SDS011;15737;49.760;6.632;2023-01-01T01:40:56;1.47;;;1.20;;
28529;SDS011;15737;49.760;6.632;2023-01-01T01:43:23;3.13;;;1.27;;
28529;SDS011;15737;49.760;6.632;2023-01-01T01:48:39;1.13;;;0.63;;
28529;SDS011;15737;49.760;6.632;2023-01-01T01:51:07;1.67;;;1.10;;
28529;SDS011;15737;49.760;6.632;2023-01-01T01:53:37;0.97;;;0.80;;
28529;SDS011;15737;49.760;6.632;2023-01-01T01:56:10;0.73;;;0.73;;
28529;SDS011;15737;49.760;6.632;2023-01-01T01:58:39;4.57;;;1.40;;
28529;SDS011;15737;49.760;6.632;2023-01-01T02:01:05;1.30;;;1.13;;
28529;SDS011;15737;49.760;6.632;2023-01-01T02:03:45;1.40;;;1.07;;
28529;SDS011;15737;49.760;6.632;2023-01-01T02:06:17;1.17;;;0.93;;
28529;SDS011;15737;49.760;6.632;2023-01-01T02:08:43;2.17;;;1.03;;
28529;SDS011;15737;49.760;6.632;2023-01-01T02:11:10;1.20;;;0.83;;
28529;SDS011;15737;49.760;6.632;2023-01-01T02:13:35;1.40;;;1.30;;
28529;SDS011;15737;49.760;6.632;2023-01-01T02:16:06;0.50;;;0.50;;
28529;SDS011;15737;49.760;6.632;2023-01-01T02:19:04;1.70;;;1.17;;
28529;SDS011;15737;49.760;6.632;2023-01-01T02:21:59;1.30;;;1.20;;
28529;SDS011;15737;49.760;6.632;2023-01-01T02:27:16;0.87;;;0.80;;
28529;SDS011;15737;49.760;6.632;2023-01-01T02:30:05;1.37;;;1.00;;
28529;SDS011;15737;49.760;6.632;2023-01-01T02:32:36;0.60;;;0.60;;
28529;SDS011;15737;49.760;6.632;2023-01-01T02:35:13;1.37;;;0.93;;
28529;SDS011;15737;49.760;6.632;2023-01-01T02:38:04;3.00;;;0.93;;
28529;SDS011;15737;49.760;6.632;2023-01-01T02:40:36;2.00;;;1.40;;
28529;SDS011;15737;49.760;6.632;2023-01-01T02:43:06;1.90;;;1.10;;
28529;SDS011;15737;49.760;6.632;2023-01-01T02:45:32;1.67;;;0.93;;
28529;SDS011;15737;49.760;6.632;2023-01-01T02:48:02;3.57;;;0.80;;
28529;SDS011;15737;49.760;6.632;2023-01-01T02:50:31;1.47;;;1.20;;
28529;SDS011;15737;49.760;6.632;2023-01-01T02:58:32;1.00;;;0.83;;
28529;SDS011;15737;49.760;6.632;2023-01-01T03:01:30;0.93;;;0.60;;
28529;SDS011;15737;49.760;6.632;2023-01-01T03:04:06;1.80;;;0.97;;
28529;SDS011;15737;49.760;6.632;2023-01-01T03:06:42;3.13;;;1.23;;
28529;SDS011;15737;49.760;6.632;2023-01-01T03:09:36;0.70;;;0.70;;
28529;SDS011;15737;49.760;6.632;2023-01-01T03:12:31;0.50;;;0.50;;
28529;SDS011;15737;49.760;6.632;2023-01-01T03:15:09;1.20;;;0.93;;
28529;SDS011;15737;49.760;6.632;2023-01-01T03:20:46;0.60;;;0.60;;
28529;SDS011;15737;49.760;6.632;2023-01-01T03:23:17;2.60;;;1.10;;
28529;SDS011;15737;49.760;6.632;2023-01-01T03:25:46;1.87;;;0.47;;
28529;SDS011;15737;49.760;6.632;2023-01-01T03:28:19;4.87;;;1.30;;
28529;SDS011;15737;49.760;6.632;2023-01-01T03:30:49;1.13;;;0.80;;
28529;SDS011;15737;49.760;6.632;2023-01-01T03:33:20;2.47;;;1.10;;
28529;SDS011;15737;49.760;6.632;2023-01-01T03:36:03;0.80;;;0.67;;
28529;SDS011;15737;49.760;6.632;2023-01-01T03:38:30;1.47;;;0.90;;
28529;SDS011;15737;49.760;6.632;2023-01-01T03:41:03;0.70;;;0.70;;
28529;SDS011;15737;49.760;6.632;2023-01-01T03:46:03;1.00;;;1.00;;
28529;SDS011;15737;49.760;6.632;2023-01-01T03:48:30;3.47;;;1.30;;
28529;SDS011;15737;49.760;6.632;2023-01-01T03:51:17;1.40;;;1.27;;
28529;SDS011;15737;49.760;6.632;2023-01-01T03:53:50;1.07;;;0.63;;
28529;SDS011;15737;49.760;6.632;2023-01-01T03:56:19;3.23;;;1.10;;
28529;SDS011;15737;49.760;6.632;2023-01-01T03:59:43;2.37;;;0.67;;
28529;SDS011;15737;49.760;6.632;2023-01-01T04:02:07;2.27;;;1.07;;
28529;SDS011;15737;49.760;6.632;2023-01-01T04:04:34;0.67;;;0.67;;
28529;SDS011;15737;49.760;6.632;2023-01-01T04:07:00;2.47;;;1.03;;
28529;SDS011;15737;49.760;6.632;2023-01-01T04:11:55;1.53;;;1.00;;
28529;SDS011;15737;49.760;6.632;2023-01-01T04:14:38;0.77;;;0.77;;
28529;SDS011;15737;49.760;6.632;2023-01-01T04:17:05;2.03;;;1.00;;
28529;SDS011;15737;49.760;6.632;2023-01-01T04:19:33;2.93;;;0.80;;
28529;SDS011;15737;49.760;6.632;2023-01-01T04:21:59;0.33;;;0.33;;
28529;SDS011;15737;49.760;6.632;2023-01-01T04:24:25;1.67;;;1.10;;
28529;SDS011;15737;49.760;6.632;2023-01-01T04:26:51;2.40;;;0.93;;
28529;SDS011;15737;49.760;6.632;2023-01-01T04:29:17;0.67;;;0.67;;
28529;SDS011;15737;49.760;6.632;2023-01-01T04:31:43;3.37;;;1.10;;
28529;SDS011;15737;49.760;6.632;2023-01-01T04:34:09;2.97;;;1.10;;
28529;SDS011;15737;49.760;6.632;2023-01-01T04:36:35;2.10;;;1.20;;
28529;SDS011;15737;49.760;6.632;2023-01-01T04:39:00;2.00;;;1.17;;
28529;SDS011;15737;49.760;6.632;2023-01-01T04:41:26;1.47;;;0.73;;
28529;SDS011;15737;49.760;6.632;2023-01-01T04:43:52;1.33;;;0.93;;
28529;SDS011;15737;49.760;6.632;2023-01-01T04:46:18;1.43;;;1.07;;
28529;SDS011;15737;49.760;6.632;2023-01-01T04:48:45;0.40;;;0.40;;
28529;SDS011;15737;49.760;6.632;2023-01-01T04:51:11;3.27;;;0.90;;
28529;SDS011;15737;49.760;6.632;2023-01-01T04:53:38;1.77;;;0.97;;
28529;SDS011;15737;49.760;6.632;2023-01-01T04:56:04;2.67;;;1.10;;
28529;SDS011;15737;49.760;6.632;2023-01-01T04:58:50;2.10;;;0.80;;
28529;SDS011;15737;49.760;6.632;2023-01-01T05:01:23;1.27;;;1.17;;
28529;SDS011;15737;49.760;6.632;2023-01-01T05:03:51;0.87;;;0.80;;
28529;SDS011;15737;49.760;6.632;2023-01-01T05:06:17;1.27;;;0.93;;
28529;SDS011;15737;49.760;6.632;2023-01-01T05:08:46;1.33;;;1.23;;
28529;SDS011;15737;49.760;6.632;2023-01-01T05:11:14;1.23;;;1.03;;
28529;SDS011;15737;49.760;6.632;2023-01-01T05:13:41;1.27;;;1.17;;
28529;SDS011;15737;49.760;6.632;2023-01-01T05:16:09;1.60;;;0.97;;
28529;SDS011;15737;49.760;6.632;2023-01-01T05:18:36;1.10;;;1.00;;
28529;SDS011;15737;49.760;6.632;2023-01-01T05:21:03;1.10;;;1.00;;
28529;SDS011;15737;49.760;6.632;2023-01-01T05:23:32;3.83;;;1.23;;
28529;SDS011;15737;49.760;6.632;2023-01-01T05:25:58;6.13;;;1.80;;
28529;SDS011;15737;49.760;6.632;2023-01-01T05:28:24;1.13;;;1.03;;
28529;SDS011;15737;49.760;6.632;2023-01-01T05:30:50;2.30;;;1.20;;
28529;SDS011;15737;49.760;6.632;2023-01-01T05:33:16;1.00;;;0.93;;
28529;SDS011;15737;49.760;6.632;2023-01-01T05:35:42;0.63;;;0.63;;
28529;SDS011;15737;49.760;6.632;2023-01-01T05:38:07;3.57;;;1.40;;
28529;SDS011;15737;49.760;6.632;2023-01-01T05:40:33;2.63;;;1.00;;
28529;SDS011;15737;49.760;6.632;2023-01-01T05:42:59;2.10;;;1.13;;
28529;SDS011;15737;49.760;6.632;2023-01-01T05:45:24;1.77;;;1.10;;
28529;SDS011;15737;49.760;6.632;2023-01-01T05:47:50;4.43;;;1.10;;
28529;SDS011;15737;49.760;6.632;2023-01-01T05:50:16;0.73;;;0.63;;
28529;SDS011;15737;49.760;6.632;2023-01-01T05:52:41;1.53;;;1.10;;
28529;SDS011;15737;49.760;6.632;2023-01-01T05:55:07;1.97;;;1.13;;
28529;SDS011;15737;49.760;6.632;2023-01-01T05:57:32;1.87;;;1.07;;
28529;SDS011;15737;49.760;6.632;2023-01-01T05:59:58;0.70;;;0.70;;
28529;SDS011;15737;49.760;6.632;2023-01-01T06:02:23;1.80;;;1.40;;
28529;SDS011;15737;49.760;6.632;2023-01-01T06:04:49;3.20;;;1.30;;
28529;SDS011;15737;49.760;6.632;2023-01-01T06:07:14;1.77;;;1.37;;
28529;SDS011;15737;49.760;6.632;2023-01-01T06:09:40;2.07;;;1.40;;
28529;SDS011;15737;49.760;6.632;2023-01-01T06:12:05;1.70;;;1.40;;
28529;SDS011;15737;49.760;6.632;2023-01-01T06:14:31;2.83;;;0.87;;
28529;SDS011;15737;49.760;6.632;2023-01-01T06:16:57;1.20;;;1.10;;
28529;SDS011;15737;49.760;6.632;2023-01-01T06:19:22;1.30;;;1.10;;
28529;SDS011;15737;49.760;6.632;2023-01-01T06:21:48;1.60;;;1.50;;
28529;SDS011;15737;49.760;6.632;2023-01-01T06:24:13;1.10;;;1.10;;
28529;SDS011;15737;49.760;6.632;2023-01-01T06:26:39;4.30;;;1.50;;
28529;SDS011;15737;49.760;6.632;2023-01-01T06:29:04;2.60;;;1.27;;
28529;SDS011;15737;49.760;6.632;2023-01-01T06:31:30;3.97;;;1.30;;
28529;SDS011;15737;49.760;6.632;2023-01-01T06:33:56;3.13;;;1.87;;
28529;SDS011;15737;49.760;6.632;2023-01-01T06:36:22;2.07;;;1.63;;
28529;SDS011;15737;49.760;6.632;2023-01-01T06:38:50;7.57;;;1.47;;
28529;SDS011;15737;49.760;6.632;2023-01-01T06:41:18;3.50;;;1.33;;
28529;SDS011;15737;49.760;6.632;2023-01-01T06:43:45;1.73;;;1.20;;
28529;SDS011;15737;49.760;6.632;2023-01-01T06:46:18;2.17;;;1.20;;
28529;SDS011;15737;49.760;6.632;2023-01-01T06:48:46;2.37;;;1.40;;
28529;SDS011;15737;49.760;6.632;2023-01-01T06:51:16;1.10;;;1.00;;
28529;SDS011;15737;49.760;6.632;2023-01-01T06:53:44;4.83;;;1.20;;
28529;SDS011;15737;49.760;6.632;2023-01-01T06:56:10;3.67;;;1.20;;
28529;SDS011;15737;49.760;6.632;2023-01-01T06:58:36;5.10;;;1.47;;
28529;SDS011;15737;49.760;6.632;2023-01-01T07:01:23;1.60;;;1.00;;
28529;SDS011;15737;49.760;6.632;2023-01-01T07:03:53;4.23;;;1.10;;
28529;SDS011;15737;49.760;6.632;2023-01-01T07:06:19;4.80;;;1.10;;
28529;SDS011;15737;49.760;6.632;2023-01-01T07:08:45;2.07;;;0.87;;
28529;SDS011;15737;49.760;6.632;2023-01-01T07:11:11;1.20;;;1.10;;
28529;SDS011;15737;49.760;6.632;2023-01-01T07:13:37;2.77;;;0.93;;
28529;SDS011;15737;49.760;6.632;2023-01-01T07:16:02;1.57;;;1.13;;
28529;SDS011;15737;49.760;6.632;2023-01-01T07:18:28;2.83;;;1.33;;
28529;SDS011;15737;49.760;6.632;2023-01-01T07:21:01;1.90;;;1.03;;
28529;SDS011;15737;49.760;6.632;2023-01-01T07:23:28;2.70;;;1.10;;
28529;SDS011;15737;49.760;6.632;2023-01-01T07:25:55;1.90;;;1.00;;
28529;SDS011;15737;49.760;6.632;2023-01-01T07:28:21;1.10;;;1.10;;
28529;SDS011;15737;49.760;6.632;2023-01-01T07:30:47;1.80;;;1.40;;
28529;SDS011;15737;49.760;6.632;2023-01-01T07:33:14;3.37;;;1.47;;
28529;SDS011;15737;49.760;6.632;2023-01-01T07:35:44;2.73;;;1.47;;
28529;SDS011;15737;49.760;6.632;2023-01-01T07:38:10;1.60;;;0.90;;
28529;SDS011;15737;49.760;6.632;2023-01-01T07:40:35;5.73;;;1.40;;
28529;SDS011;15737;49.760;6.632;2023-01-01T07:43:01;1.27;;;1.10;;
28529;SDS011;15737;49.760;6.632;2023-01-01T07:45:27;1.00;;;0.90;;
28529;SDS011;15737;49.760;6.632;2023-01-01T07:47:53;1.43;;;1.33;;
28529;SDS011;15737;49.760;6.632;2023-01-01T07:50:20;2.37;;;0.97;;
28529;SDS011;15737;49.760;6.632;2023-01-01T07:52:46;2.23;;;1.13;;
28529;SDS011;15737;49.760;6.632;2023-01-01T07:55:12;2.10;;;1.40;;
28529;SDS011;15737;49.760;6.632;2023-01-01T07:57:40;1.10;;;1.07;;
28529;SDS011;15737;49.760;6.632;2023-01-01T08:00:06;4.53;;;1.00;;
28529;SDS011;15737;49.760;6.632;2023-01-01T08:02:33;4.13;;;1.50;;
28529;SDS011;15737;49.760;6.632;2023-01-01T08:04:58;1.67;;;1.17;;
28529;SDS011;15737;49.760;6.632;2023-01-01T08:07:24;3.53;;;1.00;;
28529;SDS011;15737;49.760;6.632;2023-01-01T08:09:49;1.63;;;1.40;;
28529;SDS011;15737;49.760;6.632;2023-01-01T08:12:15;5.43;;;1.70;;
28529;SDS011;15737;49.760;6.632;2023-01-01T08:14:40;0.53;;;0.53;;
28529;SDS011;15737;49.760;6.632;2023-01-01T08:17:06;2.73;;;1.40;;
28529;SDS011;15737;49.760;6.632;2023-01-01T08:19:31;4.27;;;1.40;;
28529;SDS011;15737;49.760;6.632;2023-01-01T08:21:57;3.67;;;1.17;;
28529;SDS011;15737;49.760;6.632;2023-01-01T08:24:22;0.40;;;0.40;;
28529;SDS011;15737;49.760;6.632;2023-01-01T08:26:48;2.70;;;1.30;;
28529;SDS011;15737;49.760;6.632;2023-01-01T08:29:14;2.60;;;1.00;;
28529;SDS011;15737;49.760;6.632;2023-01-01T08:31:40;3.50;;;1.03;;
28529;SDS011;15737;49.760;6.632;2023-01-01T08:34:06;4.27;;;1.87;;
28529;SDS011;15737;49.760;6.632;2023-01-01T08:36:31;2.67;;;1.50;;
28529;SDS011;15737;49.760;6.632;2023-01-01T08:38:57;1.87;;;1.13;;
28529;SDS011;15737;49.760;6.632;2023-01-01T08:41:23;1.80;;;1.07;;
28529;SDS011;15737;49.760;6.632;2023-01-01T08:43:48;2.80;;;0.87;;
28529;SDS011;15737;49.760;6.632;2023-01-01T08:46:14;1.37;;;0.87;;
28529;SDS011;15737;49.760;6.632;2023-01-01T08:48:40;3.00;;;1.60;;
28529;SDS011;15737;49.760;6.632;2023-01-01T08:51:06;3.33;;;1.10;;
28529;SDS011;15737;49.760;6.632;2023-01-01T08:53:31;1.60;;;0.80;;
28529;SDS011;15737;49.760;6.632;2023-01-01T08:55:58;1.50;;;1.10;;
28529;SDS011;15737;49.760;6.632;2023-01-01T08:58:34;3.03;;;1.10;;
28529;SDS011;15737;49.760;6.632;2023-01-01T09:01:01;2.57;;;1.00;;
28529;SDS011;15737;49.760;6.632;2023-01-01T09:03:27;2.97;;;1.37;;
28529;SDS011;15737;49.760;6.632;2023-01-01T09:05:53;2.30;;;1.57;;
28529;SDS011;15737;49.760;6.632;2023-01-01T09:08:19;3.73;;;1.53;;
28529;SDS011;15737;49.760;6.632;2023-01-01T09:10:46;1.20;;;1.10;;
28529;SDS011;15737;49.760;6.632;2023-01-01T09:13:12;2.50;;;1.30;;
28529;SDS011;15737;49.760;6.632;2023-01-01T09:15:39;1.53;;;1.10;;
28529;SDS011;15737;49.760;6.632;2023-01-01T09:18:07;2.30;;;1.30;;
28529;SDS011;15737;49.760;6.632;2023-01-01T09:20:33;3.43;;;1.70;;
28529;SDS011;15737;49.760;6.632;2023-01-01T09:22:59;3.43;;;1.60;;
28529;SDS011;15737;49.760;6.632;2023-01-01T09:25:24;3.87;;;1.27;;
28529;SDS011;15737;49.760;6.632;2023-01-01T09:27:55;3.10;;;1.40;;
28529;SDS011;15737;49.760;6.632;2023-01-01T09:30:25;2.23;;;1.30;;
28529;SDS011;15737;49.760;6.632;2023-01-01T09:32:50;2.63;;;1.67;;
28529;SDS011;15737;49.760;6.632;2023-01-01T09:35:16;4.07;;;1.60;;
28529;SDS011;15737;49.760;6.632;2023-01-01T09:37:41;4.03;;;1.50;;
28529;SDS011;15737;49.760;6.632;2023-01-01T09:40:08;4.33;;;1.20;;
28529;SDS011;15737;49.760;6.632;2023-01-01T09:42:51;5.03;;;1.60;;
28529;SDS011;15737;49.760;6.632;2023-01-01T09:45:47;3.43;;;1.30;;
28529;SDS011;15737;49.760;6.632;2023-01-01T09:48:19;4.17;;;1.60;;
28529;SDS011;15737;49.760;6.632;2023-01-01T09:53:16;7.20;;;1.47;;
28529;SDS011;15737;49.760;6.632;2023-01-01T09:56:03;1.53;;;0.90;;
28529;SDS011;15737;49.760;6.632;2023-01-01T09:58:36;3.43;;;1.50;;
28529;SDS011;15737;49.760;6.632;2023-01-01T10:01:08;2.13;;;1.13;;
28529;SDS011;15737;49.760;6.632;2023-01-01T10:12:59;5.10;;;1.53;;
28529;SDS011;15737;49.760;6.632;2023-01-01T10:15:29;5.10;;;1.60;;
28529;SDS011;15737;49.760;6.632;2023-01-01T10:18:02;1.30;;;1.10;;
28529;SDS011;15737;49.760;6.632;2023-01-01T10:20:41;2.57;;;1.70;;
28529;SDS011;15737;49.760;6.632;2023-01-01T10:26:27;2.27;;;1.40;;
28529;SDS011;15737;49.760;6.632;2023-01-01T10:28:58;2.47;;;1.40;;
28529;SDS011;15737;49.760;6.632;2023-01-01T10:31:30;1.50;;;0.80;;
28529;SDS011;15737;49.760;6.632;2023-01-01T10:33:58;1.57;;;1.23;;
28529;SDS011;15737;49.760;6.632;2023-01-01T10:36:43;2.10;;;1.20;;
28529;SDS011;15737;49.760;6.632;2023-01-01T10:39:13;2.77;;;1.40;;
28529;SDS011;15737;49.760;6.632;2023-01-01T10:41:41;4.07;;;1.10;;
28529;SDS011;15737;49.760;6.632;2023-01-01T10:44:07;1.90;;;1.70;;
28529;SDS011;15737;49.760;6.632;2023-01-01T10:46:34;3.90;;;1.47;;
28529;SDS011;15737;49.760;6.632;2023-01-01T10:49:06;4.17;;;1.27;;
28529;SDS011;15737;49.760;6.632;2023-01-01T10:51:36;1.27;;;0.90;;
28529;SDS011;15737;49.760;6.632;2023-01-01T10:54:14;3.03;;;1.40;;
28529;SDS011;15737;49.760;6.632;2023-01-01T10:56:56;1.53;;;1.30;;
28529;SDS011;15737;49.760;6.632;2023-01-01T10:59:31;2.50;;;1.30;;
28529;SDS011;15737;49.760;6.632;2023-01-01T11:02:34;4.20;;;1.50;;
28529;SDS011;15737;49.760;6.632;2023-01-01T11:07:42;2.17;;;1.30;;
28529;SDS011;15737;49.760;6.632;2023-01-01T11:10:21;2.87;;;1.20;;
28529;SDS011;15737;49.760;6.632;2023-01-01T11:12:53;1.10;;;0.90;;
28529;SDS011;15737;49.760;6.632;2023-01-01T11:15:19;2.90;;;1.23;;
28529;SDS011;15737;49.760;6.632;2023-01-01T11:18:13;1.37;;;1.10;;
28529;SDS011;15737;49.760;6.632;2023-01-01T11:20:50;3.60;;;1.43;;
28529;SDS011;15737;49.760;6.632;2023-01-01T11:23:18;2.07;;;1.27;;
28529;SDS011;15737;49.760;6.632;2023-01-01T11:26:01;5.40;;;1.60;;
28529;SDS011;15737;49.760;6.632;2023-01-01T11:28:29;1.80;;;1.50;;
28529;SDS011;15737;49.760;6.632;2023-01-01T11:33:45;3.70;;;1.47;;
28529;SDS011;15737;49.760;6.632;2023-01-01T11:36:24;2.87;;;1.50;;
28529;SDS011;15737;49.760;6.632;2023-01-01T11:41:44;5.67;;;1.50;;
28529;SDS011;15737;49.760;6.632;2023-01-01T11:44:12;4.07;;;1.67;;
28529;SDS011;15737;49.760;6.632;2023-01-01T11:46:53;4.27;;;1.20;;
28529;SDS011;15737;49.760;6.632;2023-01-01T11:49:24;3.07;;;1.63;;
28529;SDS011;15737;49.760;6.632;2023-01-01T11:51:52;2.30;;;1.10;;
28529;SDS011;15737;49.760;6.632;2023-01-01T11:56:44;1.87;;;1.37;;
28529;SDS011;15737;49.760;6.632;2023-01-01T11:59:13;3.73;;;1.53;;
28529;SDS011;15737;49.760;6.632;2023-01-01T12:04:23;4.80;;;1.80;;
28529;SDS011;15737;49.760;6.632;2023-01-01T12:06:56;4.23;;;1.60;;
28529;SDS011;15737;49.760;6.632;2023-01-01T12:09:43;3.20;;;1.30;;
28529;SDS011;15737;49.760;6.632;2023-01-01T12:12:17;1.60;;;1.17;;
28529;SDS011;15737;49.760;6.632;2023-01-01T12:18:05;4.57;;;1.67;;
28529;SDS011;15737;49.760;6.632;2023-01-01T12:20:56;0.83;;;0.70;;
28529;SDS011;15737;49.760;6.632;2023-01-01T12:23:49;4.20;;;1.53;;
28529;SDS011;15737;49.760;6.632;2023-01-01T12:26:24;3.27;;;1.00;;
28529;SDS011;15737;49.760;6.632;2023-01-01T12:29:10;2.90;;;1.07;;
28529;SDS011;15737;49.760;6.632;2023-01-01T12:32:05;3.97;;;1.30;;
28529;SDS011;15737;49.760;6.632;2023-01-01T12:35:00;4.80;;;2.03;;
28529;SDS011;15737;49.760;6.632;2023-01-01T12:37:58;2.10;;;1.30;;
28529;SDS011;15737;49.760;6.632;2023-01-01T12:40:36;4.87;;;1.60;;
28529;SDS011;15737;49.760;6.632;2023-01-01T12:43:07;3.50;;;1.40;;
28529;SDS011;15737;49.760;6.632;2023-01-01T12:51:06;1.43;;;1.30;;
28529;SDS011;15737;49.760;6.632;2023-01-01T12:56:17;3.67;;;1.33;;
28529;SDS011;15737;49.760;6.632;2023-01-01T12:58:59;4.57;;;1.10;;
28529;SDS011;15737;49.760;6.632;2023-01-01T13:01:30;2.17;;;1.20;;
28529;SDS011;15737;49.760;6.632;2023-01-01T13:03:59;3.90;;;1.50;;
28529;SDS011;15737;49.760;6.632;2023-01-01T13:09:28;3.17;;;1.20;;
28529;SDS011;15737;49.760;6.632;2023-01-01T13:12:03;2.97;;;1.40;;
28529;SDS011;15737;49.760;6.632;2023-01-01T13:14:46;3.47;;;1.37;;
28529;SDS011;15737;49.760;6.632;2023-01-01T13:17:17;4.10;;;1.63;;
28529;SDS011;15737;49.760;6.632;2023-01-01T13:19:45;2.07;;;1.70;;
28529;SDS011;15737;49.760;6.632;2023-01-01T13:25:01;3.63;;;1.80;;
28529;SDS011;15737;49.760;6.632;2023-01-01T13:30:47;4.30;;;1.80;;
28529;SDS011;15737;49.760;6.632;2023-01-01T13:38:45;3.23;;;1.53;;
28529;SDS011;15737;49.760;6.632;2023-01-01T13:57:49;4.50;;;1.80;;
28529;SDS011;15737;49.760;6.632;2023-01-01T14:00:22;4.30;;;1.90;;
28529;SDS011;15737;49.760;6.632;2023-01-01T14:02:55;6.70;;;1.87;;
28529;SDS011;15737;49.760;6.632;2023-01-01T14:05:28;3.97;;;1.50;;
28529;SDS011;15737;49.760;6.632;2023-01-01T14:07:57;3.47;;;1.97;;
28529;SDS011;15737;49.760;6.632;2023-01-01T14:10:33;4.37;;;1.77;;
28529;SDS011;15737;49.760;6.632;2023-01-01T14:13:11;6.53;;;2.10;;
28529;SDS011;15737;49.760;6.632;2023-01-01T14:15:55;6.30;;;2.50;;
28529;SDS011;15737;49.760;6.632;2023-01-01T14:18:38;4.70;;;1.87;;
28529;SDS011;15737;49.760;6.632;2023-01-01T14:21:08;2.70;;;1.70;;
28529;SDS011;15737;49.760;6.632;2023-01-01T14:23:37;1.83;;;1.57;;
28529;SDS011;15737;49.760;6.632;2023-01-01T14:26:07;2.73;;;2.00;;
28529;SDS011;15737;49.760;6.632;2023-01-01T14:28:36;3.23;;;1.40;;
28529;SDS011;15737;49.760;6.632;2023-01-01T14:31:05;2.10;;;1.90;;
28529;SDS011;15737;49.760;6.632;2023-01-01T14:33:35;4.47;;;1.60;;
28529;SDS011;15737;49.760;6.632;2023-01-01T14:36:05;3.07;;;1.77;;
28529;SDS011;15737;49.760;6.632;2023-01-01T14:38:46;4.30;;;1.90;;
28529;SDS011;15737;49.760;6.632;2023-01-01T14:41:23;4.27;;;1.73;;
28529;SDS011;15737;49.760;6.632;2023-01-01T14:44:01;4.27;;;2.00;;
28529;SDS011;15737;49.760;6.632;2023-01-01T14:46:34;2.70;;;1.43;;
28529;SDS011;15737;49.760;6.632;2023-01-01T14:49:07;5.47;;;2.03;;
28529;SDS011;15737;49.760;6.632;2023-01-01T14:51:34;4.37;;;1.50;;
28529;SDS011;15737;49.760;6.632;2023-01-01T14:54:01;2.10;;;1.87;;
28529;SDS011;15737;49.760;6.632;2023-01-01T14:56:29;6.03;;;2.10;;
28529;SDS011;15737;49.760;6.632;2023-01-01T14:59:21;2.47;;;1.47;;
28529;SDS011;15737;49.760;6.632;2023-01-01T15:02:00;4.70;;;1.60;;
28529;SDS011;15737;49.760;6.632;2023-01-01T15:04:40;3.37;;;1.50;;
28529;SDS011;15737;49.760;6.632;2023-01-01T15:07:17;2.03;;;1.57;;
28529;SDS011;15737;49.760;6.632;2023-01-01T15:09:43;6.47;;;1.50;;
28529;SDS011;15737;49.760;6.632;2023-01-01T15:12:09;5.90;;;1.90;;
28529;SDS011;15737;49.760;6.632;2023-01-01T15:14:38;4.70;;;1.43;;
28529;SDS011;15737;49.760;6.632;2023-01-01T15:17:07;6.23;;;1.83;;
28529;SDS011;15737;49.760;6.632;2023-01-01T15:19:35;6.27;;;1.90;;
28529;SDS011;15737;49.760;6.632;2023-01-01T15:22:16;8.07;;;1.97;;
28529;SDS011;15737;49.760;6.632;2023-01-01T15:24:55;3.43;;;2.00;;
28529;SDS011;15737;49.760;6.632;2023-01-01T15:27:31;4.13;;;1.67;;
28529;SDS011;15737;49.760;6.632;2023-01-01T15:29:58;4.27;;;1.70;;
28529;SDS011;15737;49.760;6.632;2023-01-01T15:32:26;4.13;;;1.60;;
28529;SDS011;15737;49.760;6.632;2023-01-01T15:34:57;5.27;;;1.80;;
28529;SDS011;15737;49.760;6.632;2023-01-01T15:37:30;2.97;;;2.00;;
28529;SDS011;15737;49.760;6.632;2023-01-01T15:40:00;4.17;;;1.93;;
28529;SDS011;15737;49.760;6.632;2023-01-01T15:47:50;3.57;;;1.70;;
28529;SDS011;15737;49.760;6.632;2023-01-01T15:50:25;7.90;;;2.60;;
28529;SDS011;15737;49.760;6.632;2023-01-01T15:52:54;7.40;;;2.10;;
28529;SDS011;15737;49.760;6.632;2023-01-01T15:55:23;7.27;;;2.60;;
28529;SDS011;15737;49.760;6.632;2023-01-01T15:57:51;6.47;;;2.90;;
28529;SDS011;15737;49.760;6.632;2023-01-01T16:00:21;10.23;;;2.70;;
28529;SDS011;15737;49.760;6.632;2023-01-01T16:02:53;7.80;;;1.80;;
28529;SDS011;15737;49.760;6.632;2023-01-01T16:05:23;2.93;;;1.80;;
28529;SDS011;15737;49.760;6.632;2023-01-01T16:08:23;4.00;;;2.07;;
28529;SDS011;15737;49.760;6.632;2023-01-01T16:10:43;5.77;;;2.23;;
28529;SDS011;15737;49.760;6.632;2023-01-01T16:13:09;2.87;;;1.80;;
28529;SDS011;15737;49.760;6.632;2023-01-01T16:15:36;4.10;;;2.00;;
28529;SDS011;15737;49.760;6.632;2023-01-01T16:18:11;6.47;;;2.40;;
28529;SDS011;15737;49.760;6.632;2023-01-01T16:20:39;3.83;;;1.53;;
28529;SDS011;15737;49.760;6.632;2023-01-01T16:23:06;5.10;;;3.10;;
28529;SDS011;15737;49.760;6.632;2023-01-01T16:25:33;2.87;;;2.17;;
28529;SDS011;15737;49.760;6.632;2023-01-01T16:27:59;3.37;;;2.23;;
28529;SDS011;15737;49.760;6.632;2023-01-01T16:30:24;5.47;;;2.20;;
28529;SDS011;15737;49.760;6.632;2023-01-01T16:32:50;13.67;;;2.50;;
28529;SDS011;15737;49.760;6.632;2023-01-01T16:35:16;4.27;;;2.23;;
28529;SDS011;15737;49.760;6.632;2023-01-01T16:37:41;6.90;;;2.50;;
28529;SDS011;15737;49.760;6.632;2023-01-01T16:40:07;7.50;;;2.50;;
28529;SDS011;15737;49.760;6.632;2023-01-01T16:42:33;3.93;;;2.27;;
28529;SDS011;15737;49.760;6.632;2023-01-01T16:44:59;4.00;;;2.10;;
28529;SDS011;15737;49.760;6.632;2023-01-01T16:47:24;4.90;;;2.13;;